Accueil
METAR-TAF:

METAR-TAF

Aéroports :

Aéroport international de Malé

Malé, Maldives

latitude: 04-12N, longitude: 073-32E, altitude: 2 m

Observation

Le bulletin a été fait il y a 46 minutes, à 15:00 UTC
Vent 3 kt de nord
Température 28°C
Humidité 70%
Pression 1013 hPa
Visibilité 10 km ou plus
Quelques nuages à une hauteur de 1800 ft
Nuages fragmentés à une hauteur de 27000 ft

METAR: VRMM 151500Z 01003KT 9999 FEW018 BKN270 28/22 Q1013 NOSIG

Heure: 20:46 (15:46 UTC)

Prévision

Le bulletin a été fait il y a 4 heures et 46 minutes, à 11:00 UTC
Prévision valable du 15 à 12 UTC au 16 à 18 UTC
Vent 6 kt de nord/nord-ouest
Visibilité 10 km ou plus
Quelques nuages à une hauteur de 1800 ft
Temporairement
du 15 à 13 UTC au 15 à 19 UTC
Quelques nuages à une hauteur de 1900 ft, Cumulonimbus.

TAF: VRMM 151100Z 1512/1618 34006KT 9999 FEW018 TEMPO 1513/1519 FEW019CB

Observations et prévisions météorologiques de plus de 4000 aéroports (messages METAR et TAF).

Les stations disponibles sont représentées par des disques jaunes et rouges sur la carte.

Passer la souris dessus pour voir le nom de la station.

Cliquer dessus pour voir les observations et prévisions météorologiques.

Pour changer de carte: cliquez sur les boutons verts avec une croix noire pour zoomer, sur le bouton vert avec un tiret pour effectuer un zoom arrière, ou sur les flèches vertes pour les cartes adjacentes.


METAR-TAF: